Time;durP1;ratioP1;P1;durP2;ratioP2;P2;SDS_P1;SDS_P2;PMS_P1;PMS_P2;Temp;Humidity;BMP_temperature;BMP_pressure;BME280_temperature;BME280_humidity;BME280_pressure;Samples;Min_cycle;Max_cycle;Signal;HPM_P1;HPM_P2
2023/06/07 00:01:33;;;;;;;8.90;8.13;;;17.20;99.90;;;;;;4998966;28;20234;-66
2023/06/07 00:03:59;;;;;;;9.00;8.20;;;17.20;99.90;;;;;;4997278;28;20534;-66
2023/06/07 00:06:25;;;;;;;10.97;9.97;;;17.10;99.90;;;;;;4991866;28;20204;-66
2023/06/07 00:08:50;;;;;;;11.70;10.70;;;17.20;99.90;;;;;;4991778;28;20169;-66
2023/06/07 00:11:16;;;;;;;14.23;12.90;;;17.20;99.90;;;;;;4991692;28;20239;-66
2023/06/07 00:13:42;;;;;;;10.57;9.53;;;17.20;99.90;;;;;;4991999;28;20606;-66
2023/06/07 00:16:07;;;;;;;11.60;10.70;;;17.20;99.90;;;;;;4991673;28;20679;-66
2023/06/07 00:18:33;;;;;;;10.30;9.20;;;17.30;99.90;;;;;;4991588;28;20219;-66
2023/06/07 00:20:59;;;;;;;9.90;8.93;;;17.30;99.90;;;;;;4991468;28;20173;-66
2023/06/07 00:23:26;;;;;;;9.60;8.80;;;17.40;99.90;;;;;;4991801;28;20193;-66
2023/06/07 00:25:52;;;;;;;10.70;9.17;;;17.40;99.90;;;;;;4991702;28;20308;-66
2023/06/07 00:28:17;;;;;;;11.97;10.87;;;17.40;99.90;;;;;;4991581;28;20215;-66
2023/06/07 00:30:43;;;;;;;10.03;9.13;;;17.50;99.90;;;;;;4991379;28;20179;-67
2023/06/07 00:33:09;;;;;;;10.20;9.33;;;17.50;99.90;;;;;;4991418;28;20207;-66
2023/06/07 00:35:34;;;;;;;10.87;10.00;;;17.60;99.90;;;;;;4995259;28;20173;-66
2023/06/07 00:38:00;;;;;;;7.80;7.10;;;17.60;99.90;;;;;;4995468;28;20699;-66
2023/06/07 00:40:25;;;;;;;9.33;6.90;;;17.70;99.90;;;;;;4995159;28;20271;-66
2023/06/07 00:42:51;;;;;;;9.90;7.00;;;17.70;99.90;;;;;;4995252;28;20220;-66
2023/06/07 00:45:16;;;;;;;8.60;7.83;;;17.80;99.90;;;;;;4995174;28;20169;-66
2023/06/07 00:47:42;;;;;;;10.20;9.40;;;17.80;99.90;;;;;;4995393;28;20558;-66
2023/06/07 00:50:08;;;;;;;8.60;7.80;;;17.90;99.90;;;;;;4994861;28;20173;-66
2023/06/07 00:52:35;;;;;;;7.95;7.25;;;17.90;99.90;;;;;;4995539;28;20686;-66
2023/06/07 00:55:02;;;;;;;12.37;11.47;;;18.00;99.90;;;;;;4995177;28;20637;-66
2023/06/07 00:57:32;;;;;;;12.30;11.13;;;18.00;99.90;;;;;;4995027;28;20203;-66
2023/06/07 01:00:00;;;;;;;7.90;7.10;;;18.10;99.90;;;;;;4993208;28;20181;-67
2023/06/07 01:02:26;;;;;;;8.67;7.60;;;18.10;99.90;;;;;;4995259;28;20402;-66
2023/06/07 01:04:52;;;;;;;8.73;7.83;;;18.00;99.90;;;;;;4994972;28;20581;-66
2023/06/07 01:07:24;;;;;;;9.80;8.03;;;18.00;99.90;;;;;;4994950;28;20583;-66
2023/06/07 01:09:51;;;;;;;8.87;8.17;;;18.00;99.90;;;;;;4994516;28;20204;-66
2023/06/07 01:12:18;;;;;;;9.10;8.13;;;17.90;99.90;;;;;;4994900;28;20256;-66
2023/06/07 01:14:45;;;;;;;11.60;10.90;;;18.00;99.90;;;;;;4994465;28;20181;-66
2023/06/07 01:17:12;;;;;;;9.87;8.97;;;18.00;99.90;;;;;;4993342;28;20549;-66
2023/06/07 01:19:39;;;;;;;8.87;8.07;;;18.00;99.90;;;;;;4993487;28;20650;-66
2023/06/07 01:22:06;;;;;;;9.60;8.20;;;18.00;99.90;;;;;;4994734;28;20642;-66
2023/06/07 01:24:35;;;;;;;10.70;7.88;;;18.00;99.90;;;;;;4994719;28;20200;-66
2023/06/07 01:27:02;;;;;;;9.20;8.23;;;18.00;99.90;;;;;;4995000;28;20205;-67
2023/06/07 01:29:30;;;;;;;8.90;8.00;;;18.00;99.90;;;;;;4994228;28;20191;-67
2023/06/07 01:32:00;;;;;;;9.33;8.43;;;18.00;99.90;;;;;;4994494;28;20555;-67
2023/06/07 01:34:26;;;;;;;8.97;8.17;;;18.00;99.90;;;;;;4994683;28;20296;-67
2023/06/07 01:36:54;;;;;;;9.80;8.43;;;18.00;99.90;;;;;;4994139;28;20216;-67
2023/06/07 01:39:21;;;;;;;9.57;8.67;;;18.00;99.90;;;;;;4993768;28;20302;-67
2023/06/07 01:41:49;;;;;;;8.87;7.97;;;18.00;99.90;;;;;;4993995;28;20188;-67
2023/06/07 01:44:15;;;;;;;9.15;8.43;;;18.00;99.90;;;;;;4994310;28;20292;-67
2023/06/07 01:46:42;;;;;;;9.13;8.15;;;18.00;99.90;;;;;;4994251;28;20219;-67
2023/06/07 01:49:08;;;;;;;9.47;8.57;;;18.00;99.90;;;;;;4993941;28;20185;-67
2023/06/07 01:51:33;;;;;;;12.47;10.77;;;18.00;99.90;;;;;;4994246;28;20181;-67
2023/06/07 01:54:00;;;;;;;12.07;9.57;;;17.90;99.90;;;;;;4994114;28;20177;-67
2023/06/07 01:56:53;;;;;;;14.60;13.17;;;17.90;99.90;;;;;;4993829;28;20203;-67
2023/06/07 01:59:44;;;;;;;9.97;8.90;;;17.90;99.90;;;;;;4993661;28;20242;-67
2023/06/07 02:02:37;;;;;;;11.67;10.57;;;17.90;99.90;;;;;;4993902;28;20200;-67
2023/06/07 02:05:12;;;;;;;12.53;11.50;;;17.90;99.90;;;;;;4993899;28;20204;-67
2023/06/07 02:07:45;;;;;;;12.17;11.10;;;17.90;99.90;;;;;;4994133;28;20693;-67
2023/06/07 02:10:12;;;;;;;11.13;10.00;;;17.90;99.90;;;;;;4993288;28;20176;-67
2023/06/07 02:12:40;;;;;;;11.00;9.93;;;17.90;99.90;;;;;;4993813;28;20185;-67
2023/06/07 02:15:07;;;;;;;12.40;9.27;;;17.90;99.90;;;;;;4994618;28;20563;-73
2023/06/07 02:17:33;;;;;;;11.70;8.80;;;17.90;99.90;;;;;;4994673;28;20216;-71
2023/06/07 02:19:59;;;;;;;10.37;9.47;;;17.90;99.90;;;;;;4994447;28;20177;-71
2023/06/07 02:22:25;;;;;;;9.23;8.43;;;17.80;99.90;;;;;;4994708;28;20188;-72
2023/06/07 02:24:51;;;;;;;10.57;8.70;;;17.80;99.90;;;;;;4994448;28;20173;-71
2023/06/07 02:27:16;;;;;;;10.80;9.00;;;17.80;99.90;;;;;;4994169;28;20228;-71
2023/06/07 02:29:42;;;;;;;14.63;8.63;;;17.80;99.90;;;;;;4994149;28;20223;-69
2023/06/07 02:32:08;;;;;;;17.17;9.53;;;17.80;99.90;;;;;;4994501;28;20169;-73
2023/06/07 02:34:33;;;;;;;11.10;9.30;;;17.70;99.90;;;;;;4994811;28;20535;-71
2023/06/07 02:37:00;;;;;;;10.13;9.13;;;17.80;99.90;;;;;;4993660;28;20193;-72
2023/06/07 02:39:26;;;;;;;10.07;9.07;;;17.70;99.90;;;;;;4992713;28;20183;-73
2023/06/07 02:41:51;;;;;;;10.17;8.80;;;17.80;99.90;;;;;;4994057;28;20648;-75
2023/06/07 02:44:17;;;;;;;9.07;8.37;;;17.80;99.90;;;;;;4992971;28;20192;-71
2023/06/07 02:46:42;;;;;;;10.80;9.70;;;17.80;99.90;;;;;;4993899;28;20196;-72
2023/06/07 02:49:08;;;;;;;11.60;10.60;;;17.80;99.90;;;;;;4993581;28;20180;-71
2023/06/07 02:51:37;;;;;;;11.30;10.30;;;17.80;99.90;;;;;;4994099;28;20213;-72
2023/06/07 02:54:03;;;;;;;12.27;9.23;;;17.80;99.90;;;;;;4993766;28;20185;-70
2023/06/07 02:56:29;;;;;;;10.00;8.80;;;17.70;99.90;;;;;;4993342;28;20675;-77
2023/06/07 02:58:55;;;;;;;10.60;9.07;;;17.70;99.90;;;;;;4992846;28;20205;-71
2023/06/07 03:01:21;;;;;;;13.17;8.93;;;17.70;99.90;;;;;;4992025;28;20179;-73
2023/06/07 03:03:48;;;;;;;10.13;8.50;;;17.60;99.90;;;;;;4993492;28;20176;-73
2023/06/07 03:06:15;;;;;;;13.47;9.17;;;17.60;99.90;;;;;;4993422;28;20196;-73
2023/06/07 03:08:40;;;;;;;9.93;8.57;;;17.60;99.90;;;;;;4993529;28;20248;-72
2023/06/07 03:11:06;;;;;;;12.07;9.37;;;17.60;99.90;;;;;;4993027;28;20169;-74
2023/06/07 03:13:32;;;;;;;10.87;8.90;;;17.60;99.90;;;;;;4993607;28;20196;-74
2023/06/07 03:15:57;;;;;;;9.87;8.60;;;17.60;99.90;;;;;;4993357;28;20582;-71
2023/06/07 03:18:23;;;;;;;11.00;9.10;;;17.50;99.90;;;;;;4993485;28;20199;-72
2023/06/07 03:20:49;;;;;;;13.17;10.20;;;17.50;99.90;;;;;;4993415;28;20224;-70
2023/06/07 03:23:15;;;;;;;10.90;8.87;;;17.60;99.90;;;;;;4993442;28;20176;-73
2023/06/07 03:25:41;;;;;;;12.73;9.40;;;17.60;99.90;;;;;;4993556;28;20188;-72
2023/06/07 03:28:06;;;;;;;12.50;9.27;;;17.60;99.90;;;;;;4993670;28;20176;-71
2023/06/07 03:30:32;;;;;;;14.67;9.63;;;17.60;99.90;;;;;;4991017;28;20191;-72
2023/06/07 03:32:57;;;;;;;14.60;9.47;;;17.60;99.90;;;;;;4993264;28;20183;-70
2023/06/07 03:35:23;;;;;;;11.00;10.00;;;17.60;99.90;;;;;;4993376;28;20185;-70
2023/06/07 03:37:49;;;;;;;12.50;9.67;;;17.60;99.90;;;;;;4992172;28;20219;-70
2023/06/07 03:40:15;;;;;;;13.07;9.83;;;17.50;99.90;;;;;;4992987;28;20252;-73
2023/06/07 03:42:40;;;;;;;11.77;9.53;;;17.60;99.90;;;;;;4993443;28;20179;-71
2023/06/07 03:45:06;;;;;;;10.20;9.10;;;17.60;99.90;;;;;;4992917;28;20647;-73
2023/06/07 03:47:32;;;;;;;11.07;9.07;;;17.60;99.90;;;;;;4993429;28;20225;-69
2023/06/07 03:49:58;;;;;;;11.53;9.67;;;17.50;99.90;;;;;;4992975;28;20173;-73
2023/06/07 03:52:24;;;;;;;9.77;8.60;;;17.50;99.90;;;;;;4993216;28;20227;-71
2023/06/07 03:54:50;;;;;;;12.00;9.43;;;17.50;99.90;;;;;;4993346;28;20185;-71
2023/06/07 03:57:15;;;;;;;11.07;8.70;;;17.60;99.90;;;;;;4992739;28;20464;-70
2023/06/07 03:59:41;;;;;;;12.90;8.50;;;17.60;99.90;;;;;;4992704;28;20199;-71
2023/06/07 04:02:07;;;;;;;10.73;8.27;;;17.50;99.90;;;;;;4992998;28;20196;-73
2023/06/07 04:04:33;;;;;;;10.87;9.87;;;17.60;99.90;;;;;;4992091;28;20543;-71
2023/06/07 04:07:00;;;;;;;10.80;8.87;;;17.50;99.90;;;;;;4992636;28;20184;-70
2023/06/07 04:09:26;;;;;;;9.50;8.50;;;17.50;99.90;;;;;;4994618;28;20639;-73
2023/06/07 04:11:52;;;;;;;12.70;9.23;;;17.50;99.90;;;;;;4997261;28;20180;-72
2023/06/07 04:14:17;;;;;;;11.00;8.60;;;17.60;99.90;;;;;;4997254;28;20702;-72
2023/06/07 04:16:43;;;;;;;10.00;8.87;;;17.60;99.90;;;;;;4996878;28;20235;-71
2023/06/07 04:19:09;;;;;;;10.43;8.57;;;17.50;99.90;;;;;;4996595;28;20204;-72
2023/06/07 04:21:34;;;;;;;13.03;9.00;;;17.50;99.90;;;;;;4997045;28;20172;-70
2023/06/07 04:24:00;;;;;;;13.17;9.67;;;17.50;99.90;;;;;;4995720;28;20635;-69
2023/06/07 04:26:30;;;;;;;14.40;9.60;;;17.50;99.90;;;;;;4995791;28;20235;-68
2023/06/07 04:28:57;;;;;;;15.17;8.63;;;17.50;99.90;;;;;;4996041;28;20549;-68
2023/06/07 04:31:29;;;;;;;11.03;9.90;;;17.50;99.90;;;;;;4995682;28;20661;-68
2023/06/07 04:33:59;;;;;;;11.07;9.60;;;17.60;99.90;;;;;;4996106;28;20183;-68
2023/06/07 04:36:31;;;;;;;14.03;9.80;;;17.70;99.90;;;;;;4995984;28;20491;-68
2023/06/07 04:38:58;;;;;;;12.03;8.83;;;17.70;99.90;;;;;;4995446;28;20240;-68
2023/06/07 04:41:32;;;;;;;13.00;9.00;;;17.80;99.90;;;;;;4995832;28;20173;-68
2023/06/07 04:44:00;;;;;;;8.83;8.07;;;17.80;99.90;;;;;;4995967;28;20161;-66
2023/06/07 04:46:30;;;;;;;12.97;9.23;;;17.80;99.90;;;;;;4995636;28;20620;-66
2023/06/07 04:48:56;;;;;;;11.13;8.90;;;17.90;99.90;;;;;;4995759;28;20256;-66
2023/06/07 04:51:22;;;;;;;8.93;8.10;;;17.90;99.90;;;;;;4995183;28;20264;-66
2023/06/07 04:53:49;;;;;;;12.93;10.37;;;18.00;99.90;;;;;;4995386;28;20181;-66
2023/06/07 04:56:14;;;;;;;11.97;8.20;;;18.00;99.90;;;;;;4995466;28;20195;-68
2023/06/07 04:58:40;;;;;;;9.93;8.63;;;18.00;99.90;;;;;;4995491;28;20204;-68
2023/06/07 05:01:09;;;;;;;11.17;8.40;;;18.10;99.90;;;;;;4994814;28;20173;-66
2023/06/07 05:03:37;;;;;;;10.77;9.67;;;18.10;99.90;;;;;;4995402;28;20223;-66
2023/06/07 05:06:04;;;;;;;11.30;9.53;;;18.20;99.90;;;;;;4995091;28;20215;-66
2023/06/07 05:08:30;;;;;;;10.73;9.40;;;18.20;99.90;;;;;;4995108;28;20212;-66
2023/06/07 05:10:56;;;;;;;9.57;8.57;;;18.10;99.90;;;;;;4994805;28;20204;-66
2023/06/07 05:13:21;;;;;;;12.27;11.03;;;18.00;99.90;;;;;;4995069;28;20172;-66
2023/06/07 05:15:50;;;;;;;9.83;8.83;;;17.90;99.90;;;;;;4993759;28;20207;-66
2023/06/07 05:18:18;;;;;;;12.57;8.90;;;17.70;99.90;;;;;;4994950;28;20246;-66
2023/06/07 05:20:44;;;;;;;10.53;9.00;;;17.60;99.90;;;;;;4993931;28;20641;-66
2023/06/07 05:23:15;;;;;;;13.10;9.50;;;17.60;99.90;;;;;;4994912;28;20248;-66
2023/06/07 05:25:41;;;;;;;12.90;9.33;;;17.60;99.90;;;;;;4995004;28;20208;-66
2023/06/07 05:28:06;;;;;;;11.53;9.73;;;17.40;99.90;;;;;;4994455;28;20200;-66
2023/06/07 05:30:32;;;;;;;10.53;9.17;;;17.30;99.90;;;;;;4994514;28;20183;-65
2023/06/07 05:32:57;;;;;;;11.40;9.30;;;17.20;99.90;;;;;;4994855;28;20230;-66
2023/06/07 05:35:23;;;;;;;15.53;8.93;;;17.20;99.90;;;;;;4994482;28;20177;-66
2023/06/07 05:37:49;;;;;;;15.63;9.37;;;17.20;99.90;;;;;;4994706;28;20342;-66
2023/06/07 05:40:18;;;;;;;12.80;10.50;;;17.30;99.90;;;;;;4994442;28;20165;-66
2023/06/07 05:42:44;;;;;;;11.07;9.97;;;17.30;99.90;;;;;;4994539;28;20655;-68
2023/06/07 05:45:10;;;;;;;15.93;10.23;;;17.40;99.90;;;;;;4994494;28;20180;-68
2023/06/07 05:47:36;;;;;;;16.00;10.30;;;17.50;99.90;;;;;;4994346;28;20381;-67
2023/06/07 05:50:03;;;;;;;10.47;9.33;;;17.70;99.90;;;;;;4994156;28;20204;-66
2023/06/07 05:52:28;;;;;;;15.97;11.67;;;17.90;99.90;;;;;;4993910;28;20635;-66
2023/06/07 05:54:55;;;;;;;13.93;11.37;;;18.10;99.90;;;;;;4993176;28;20183;-66
2023/06/07 05:57:21;;;;;;;10.73;9.73;;;18.20;99.90;;;;;;4994175;28;20220;-66
2023/06/07 05:59:47;;;;;;;11.07;9.80;;;18.20;99.90;;;;;;4994056;28;20223;-66
2023/06/07 06:02:15;;;;;;;13.27;9.53;;;18.20;99.90;;;;;;4990897;28;20177;-66
2023/06/07 06:04:40;;;;;;;12.97;11.10;;;18.30;99.90;;;;;;4994046;28;20256;-65
2023/06/07 06:07:06;;;;;;;12.37;11.17;;;18.20;99.90;;;;;;4993341;28;20711;-65
2023/06/07 06:09:32;;;;;;;11.47;9.63;;;18.20;99.90;;;;;;4993805;28;20169;-68
2023/06/07 06:11:59;;;;;;;12.90;10.20;;;18.20;99.90;;;;;;4993948;28;20195;-68
2023/06/07 06:14:25;;;;;;;11.80;10.60;;;18.20;99.90;;;;;;4993756;28;20169;-68
2023/06/07 06:16:51;;;;;;;13.03;11.00;;;18.20;99.90;;;;;;4993954;28;20247;-66
2023/06/07 06:19:16;;;;;;;10.13;9.17;;;18.30;99.90;;;;;;4993278;28;20204;-66
2023/06/07 06:21:42;;;;;;;14.90;13.57;;;18.50;99.90;;;;;;4993779;28;20173;-66
2023/06/07 06:24:08;;;;;;;13.63;12.23;;;18.60;99.90;;;;;;4993658;28;20574;-66
2023/06/07 06:26:33;;;;;;;11.70;10.52;;;18.70;99.90;;;;;;4993570;28;20676;-66
2023/06/07 06:28:59;;;;;;;13.83;11.63;;;18.90;99.90;;;;;;4993201;28;20181;-66
2023/06/07 06:31:25;;;;;;;14.45;11.93;;;19.00;99.90;;;;;;4992533;28;20177;-66
2023/06/07 06:33:51;;;;;;;16.13;14.73;;;19.00;99.90;;;;;;4993537;28;20184;-68
2023/06/07 06:36:17;;;;;;;21.35;19.48;;;18.90;99.90;;;;;;4993288;28;20196;-68
2023/06/07 06:38:42;;;;;;;17.40;15.60;;;18.70;99.90;;;;;;4993398;28;20197;-68
2023/06/07 06:41:09;;;;;;;16.80;12.30;;;18.50;99.90;;;;;;4992648;28;20196;-68
2023/06/07 06:43:35;;;;;;;13.63;12.00;;;18.30;99.90;;;;;;4993146;28;20203;-68
2023/06/07 06:46:01;;;;;;;14.07;10.53;;;18.10;99.90;;;;;;4993182;28;20185;-68
2023/06/07 06:48:26;;;;;;;14.27;10.37;;;18.00;99.90;;;;;;4993186;28;20181;-69
2023/06/07 06:50:52;;;;;;;14.70;12.03;;;17.90;99.90;;;;;;4992853;28;20176;-68
2023/06/07 06:53:18;;;;;;;16.53;14.83;;;17.70;99.90;;;;;;4992899;28;20231;-68
2023/06/07 06:55:43;;;;;;;15.00;13.57;;;17.50;99.90;;;;;;4992844;28;20568;-69
2023/06/07 06:58:09;;;;;;;16.23;14.53;;;17.40;99.90;;;;;;4992470;28;20203;-69
2023/06/07 07:00:38;;;;;;;12.07;10.63;;;17.40;99.90;;;;;;4992678;28;20276;-68
2023/06/07 07:03:03;;;;;;;15.97;10.67;;;17.30;99.90;;;;;;4992799;28;20196;-68
2023/06/07 07:05:29;;;;;;;14.77;10.37;;;17.10;99.90;;;;;;4992987;28;20575;-69
2023/06/07 07:07:55;;;;;;;13.30;10.70;;;17.00;99.90;;;;;;4993031;28;20169;-69
2023/06/07 07:10:20;;;;;;;16.87;12.90;;;16.90;99.90;;;;;;4992179;28;20654;-69
2023/06/07 07:12:46;;;;;;;15.87;11.20;;;16.80;99.90;;;;;;4992697;28;20235;-69
2023/06/07 07:15:11;;;;;;;15.73;11.43;;;16.70;99.90;;;;;;4990401;28;20187;-68
2023/06/07 07:17:48;;;;;;;12.13;10.90;;;16.80;99.90;;;;;;4992458;28;20221;-68
2023/06/07 07:20:16;;;;;;;14.27;11.73;;;16.90;99.90;;;;;;4992204;28;20177;-68
2023/06/07 07:22:43;;;;;;;15.70;10.90;;;16.90;99.90;;;;;;4992113;28;20865;-68
2023/06/07 07:25:10;;;;;;;15.30;11.37;;;17.00;99.90;;;;;;4992284;28;20209;-68
2023/06/07 07:27:36;;;;;;;24.30;11.03;;;17.00;99.90;;;;;;4993140;28;20212;-69
2023/06/07 07:30:04;;;;;;;15.17;11.23;;;17.10;99.90;;;;;;4990180;28;20267;-69
2023/06/07 07:32:30;;;;;;;13.27;11.10;;;17.00;99.90;;;;;;4992278;28;20247;-69
2023/06/07 07:34:55;;;;;;;13.23;10.47;;;17.10;99.90;;;;;;4992402;28;20816;-69
2023/06/07 07:37:21;;;;;;;13.23;11.63;;;17.20;99.90;;;;;;4991881;28;20656;-68
2023/06/07 07:39:46;;;;;;;16.57;11.37;;;17.20;99.90;;;;;;4992068;28;20177;-69
2023/06/07 07:42:12;;;;;;;12.77;11.43;;;17.30;99.90;;;;;;4992128;28;20183;-68
2023/06/07 07:44:38;;;;;;;13.67;10.20;;;17.50;99.90;;;;;;4992112;28;20287;-68
2023/06/07 07:47:05;;;;;;;11.70;10.50;;;17.60;99.90;;;;;;4991898;28;20669;-68
2023/06/07 07:49:31;;;;;;;15.50;13.47;;;17.80;99.90;;;;;;4991903;28;20207;-68
2023/06/07 07:51:56;;;;;;;12.10;10.93;;;18.10;99.90;;;;;;4991978;28;20212;-67
2023/06/07 07:54:22;;;;;;;15.30;13.83;;;18.30;99.90;;;;;;4990608;28;20643;-66
2023/06/07 07:56:48;;;;;;;13.20;11.30;;;18.50;99.90;;;;;;4991845;28;20204;-68
2023/06/07 07:59:13;;;;;;;12.63;10.07;;;18.60;99.90;;;;;;4992111;28;20208;-68
2023/06/07 08:01:39;;;;;;;11.20;9.00;;;18.90;99.90;;;;;;4990167;28;20177;-67
2023/06/07 08:04:05;;;;;;;14.70;9.97;;;19.00;99.90;;;;;;4991855;28;20176;-66
2023/06/07 08:06:30;;;;;;;12.60;9.63;;;19.20;99.90;;;;;;4991162;28;20745;-65
2023/06/07 08:08:56;;;;;;;13.88;10.85;;;19.40;99.90;;;;;;4991909;28;20192;-65
2023/06/07 08:11:23;;;;;;;13.90;10.77;;;19.50;99.90;;;;;;4991445;28;20188;-66
2023/06/07 08:13:49;;;;;;;13.37;10.30;;;19.50;99.90;;;;;;4991970;28;20255;-66
2023/06/07 08:16:16;;;;;;;10.73;9.02;;;19.40;99.90;;;;;;4991743;28;20405;-66
2023/06/07 08:18:43;;;;;;;14.63;9.03;;;19.40;99.90;;;;;;4991651;28;20216;-66
2023/06/07 08:21:11;;;;;;;13.63;12.20;;;19.40;99.90;;;;;;4991191;28;20231;-66
2023/06/07 08:23:37;;;;;;;13.15;11.95;;;19.40;99.90;;;;;;4991758;28;20215;-66
2023/06/07 08:26:03;;;;;;;18.45;17.02;;;19.20;99.90;;;;;;4991500;28;20216;-66
2023/06/07 08:28:28;;;;;;;16.15;14.60;;;19.20;99.90;;;;;;4991769;28;20643;-66
2023/06/07 08:30:54;;;;;;;16.80;13.85;;;19.20;99.90;;;;;;4991392;28;20260;-66
2023/06/07 08:33:19;;;;;;;17.30;15.63;;;19.10;99.90;;;;;;4991143;28;20188;-65
2023/06/07 08:35:45;;;;;;;15.03;13.07;;;19.10;99.90;;;;;;4971711;28;20233;-65
2023/06/07 08:38:10;;;;;;;13.40;11.63;;;19.10;99.90;;;;;;4972109;28;20357;-66
2023/06/07 08:40:37;;;;;;;14.20;12.73;;;19.10;99.90;;;;;;4971846;28;20228;-66
2023/06/07 08:43:02;;;;;;;18.97;17.17;;;19.10;99.90;;;;;;4972135;28;20248;-66
2023/06/07 08:45:28;;;;;;;17.73;16.07;;;19.00;99.90;;;;;;4971928;28;20173;-66
2023/06/07 08:47:57;;;;;;;13.73;11.93;;;18.90;99.90;;;;;;4981243;28;20189;-65
2023/06/07 08:50:23;;;;;;;13.83;11.03;;;18.90;99.90;;;;;;4991172;28;20399;-66
2023/06/07 08:52:53;;;;;;;15.47;11.67;;;18.80;99.90;;;;;;4991642;28;20570;-66
2023/06/07 08:55:18;;;;;;;15.13;11.37;;;18.70;99.90;;;;;;4992750;28;20180;-66
2023/06/07 08:57:52;;;;;;;19.77;12.17;;;18.50;99.90;;;;;;4995048;28;20291;-66
2023/06/07 09:00:25;;;;;;;13.80;11.70;;;18.60;99.90;;;;;;4994382;28;20179;-66
2023/06/07 09:02:52;;;;;;;16.75;11.23;;;18.90;99.90;;;;;;4995225;28;20252;-66
2023/06/07 09:05:22;;;;;;;15.93;12.23;;;19.20;99.90;;;;;;4995000;28;20203;-66
2023/06/07 09:07:48;;;;;;;16.10;11.05;;;19.40;99.90;;;;;;4995262;28;20562;-66
2023/06/07 09:10:17;;;;;;;15.05;11.57;;;19.60;99.90;;;;;;4994532;28;20181;-68
2023/06/07 09:12:47;;;;;;;19.00;17.40;;;19.80;99.90;;;;;;4994913;28;20180;-66
2023/06/07 09:15:20;;;;;;;24.83;22.70;;;20.00;99.90;;;;;;4994217;28;20185;-66
2023/06/07 09:17:59;;;;;;;17.38;15.75;;;20.30;99.90;;;;;;4994770;28;20288;-65
2023/06/07 09:20:27;;;;;;;18.15;11.10;;;20.50;99.90;;;;;;4994414;28;20612;-66
2023/06/07 09:23:00;;;;;;;14.25;11.18;;;20.50;99.90;;;;;;4994450;28;20215;-66
2023/06/07 09:25:27;;;;;;;12.48;11.18;;;20.70;99.90;;;;;;4994462;28;20608;-66
2023/06/07 09:27:54;;;;;;;17.52;15.63;;;20.80;99.90;;;;;;4994520;28;20168;-66
2023/06/07 09:30:21;;;;;;;12.65;10.35;;;20.90;99.90;;;;;;4992930;28;20189;-66
2023/06/07 09:32:47;;;;;;;14.73;10.15;;;20.90;99.90;;;;;;4994274;28;20185;-66
2023/06/07 09:35:19;;;;;;;10.25;8.82;;;20.90;99.90;;;;;;4993618;28;20543;-66
2023/06/07 09:37:51;;;;;;;12.15;10.32;;;21.00;99.90;;;;;;4994052;28;20215;-66
2023/06/07 09:40:17;;;;;;;19.38;17.70;;;21.20;99.90;;;;;;4994006;28;20169;-66
2023/06/07 09:42:43;;;;;;;14.73;10.55;;;21.20;99.90;;;;;;4994474;28;20173;-66
2023/06/07 09:45:17;;;;;;;18.30;16.88;;;21.00;99.90;;;;;;4994347;28;20628;-66
2023/06/07 09:47:43;;;;;;;14.02;11.85;;;20.80;99.90;;;;;;4992971;28;20211;-66
2023/06/07 09:50:12;;;;;;;15.27;13.63;;;20.60;99.90;;;;;;4993782;28;20658;-66
2023/06/07 09:52:39;;;;;;;13.50;12.07;;;20.40;99.90;;;;;;4993921;28;20664;-65
2023/06/07 09:55:07;;;;;;;14.15;11.05;;;20.00;99.90;;;;;;4993981;28;20252;-65
2023/06/07 09:57:35;;;;;;;30.87;28.23;;;19.70;99.90;;;;;;4994138;28;20197;-65
2023/06/07 10:00:14;;;;;;;22.35;20.27;;;19.30;99.90;;;;;;4992043;28;20177;-65
2023/06/07 10:02:43;;;;;;;17.45;14.25;;;19.30;99.90;;;;;;4994377;28;20168;-65
2023/06/07 10:05:12;;;;;;;15.53;13.07;;;19.40;99.90;;;;;;4993849;28;20173;-65
2023/06/07 10:07:48;;;;;;;15.18;13.38;;;19.40;99.90;;;;;;4992509;28;20203;-65
2023/06/07 10:10:17;;;;;;;16.35;14.02;;;19.30;99.90;;;;;;4993516;28;20164;-65
2023/06/07 10:12:44;;;;;;;15.00;12.47;;;19.00;99.90;;;;;;4993831;28;20180;-66
2023/06/07 10:15:12;;;;;;;15.57;13.27;;;18.90;99.90;;;;;;4993889;28;20173;-68
2023/06/07 10:17:51;;;;;;;16.87;15.37;;;18.70;99.90;;;;;;4993485;28;20663;-66
2023/06/07 10:20:24;;;;;;;17.47;14.57;;;18.60;99.90;;;;;;4993333;28;20235;-65
2023/06/07 10:22:54;;;;;;;16.63;15.00;;;18.40;99.90;;;;;;4993476;28;20179;-65
2023/06/07 10:25:22;;;;;;;14.90;13.50;;;18.20;99.90;;;;;;4993224;28;20644;-65
2023/06/07 10:27:55;;;;;;;14.13;12.67;;;18.10;99.90;;;;;;4991215;28;20201;-66
2023/06/07 10:30:24;;;;;;;16.67;13.30;;;18.10;99.90;;;;;;4992977;28;20323;-66
2023/06/07 10:32:52;;;;;;;18.53;11.50;;;18.10;99.90;;;;;;4992121;28;20188;-66
2023/06/07 10:35:19;;;;;;;15.40;11.63;;;18.10;99.90;;;;;;4993185;28;20173;-67
2023/06/07 10:37:50;;;;;;;13.93;11.67;;;18.10;99.90;;;;;;4993280;28;20266;-65
2023/06/07 10:40:16;;;;;;;12.80;11.50;;;18.00;99.90;;;;;;4992793;28;20635;-66
2023/06/07 10:42:44;;;;;;;17.10;11.47;;;18.20;99.90;;;;;;4991959;28;20279;-66
2023/06/07 10:45:16;;;;;;;17.77;13.07;;;18.30;99.90;;;;;;4973902;28;20532;-66
2023/06/07 10:47:42;;;;;;;15.93;11.97;;;18.40;99.90;;;;;;4973654;28;20288;-65
2023/06/07 10:50:27;;;;;;;15.07;13.60;;;18.60;99.90;;;;;;4992023;28;20184;-65
2023/06/07 10:53:02;;;;;;;17.83;11.03;;;18.90;99.90;;;;;;4993158;28;20172;-65
2023/06/07 10:55:31;;;;;;;14.07;12.45;;;19.30;99.90;;;;;;4992772;28;20499;-66
2023/06/07 10:58:00;;;;;;;12.97;11.17;;;19.70;99.90;;;;;;4992917;28;20251;-66
2023/06/07 11:00:30;;;;;;;17.35;11.80;;;19.80;99.90;;;;;;4989238;28;20219;-66
2023/06/07 11:03:04;;;;;;;16.35;12.60;;;19.80;99.90;;;;;;4992892;28;20652;-65
2023/06/07 11:05:51;;;;;;;18.10;16.42;;;20.00;99.90;;;;;;4992863;28;20692;-66
2023/06/07 11:08:28;;;;;;;21.48;19.58;;;20.30;99.90;;;;;;4992697;28;20251;-65
2023/06/07 11:11:04;;;;;;;18.25;13.02;;;20.70;99.90;;;;;;4991986;28;20192;-66
2023/06/07 11:13:39;;;;;;;17.50;15.73;;;21.60;99.90;;;;;;4992518;28;20176;-65
2023/06/07 11:16:23;;;;;;;13.85;10.68;;;22.50;99.90;;;;;;4992484;28;20560;-66
2023/06/07 11:18:53;;;;;;;12.60;11.30;;;23.50;99.90;;;;;;4992187;28;20215;-66
2023/06/07 11:21:18;;;;;;;17.88;10.93;;;24.40;99.90;;;;;;4991915;28;20203;-65
2023/06/07 11:23:44;;;;;;;16.30;12.07;;;24.40;99.90;;;;;;4992627;28;20590;-66
2023/06/07 11:26:13;;;;;;;14.10;11.40;;;24.40;99.90;;;;;;4991942;28;20299;-66
2023/06/07 11:28:40;;;;;;;17.33;12.45;;;24.40;99.90;;;;;;4992531;28;20182;-66
2023/06/07 11:31:12;;;;;;;15.05;12.85;;;24.10;99.90;;;;;;4992136;28;20194;-65
2023/06/07 11:33:40;;;;;;;16.52;13.70;;;24.00;99.90;;;;;;4992383;28;20180;-65
2023/06/07 11:36:06;;;;;;;15.38;13.77;;;24.00;99.90;;;;;;4992132;28;20193;-66
2023/06/07 11:38:32;;;;;;;17.27;14.70;;;24.40;99.90;;;;;;4992337;28;20204;-66
2023/06/07 11:40:58;;;;;;;18.20;14.68;;;25.00;99.90;;;;;;4992016;28;20197;-66
2023/06/07 11:43:25;;;;;;;18.70;14.15;;;25.70;99.90;;;;;;4990352;28;20213;-66
2023/06/07 11:45:55;;;;;;;18.88;16.05;;;25.60;99.90;;;;;;4992107;28;20255;-65
2023/06/07 11:48:24;;;;;;;18.17;16.50;;;25.40;99.90;;;;;;4992059;28;20172;-66
2023/06/07 11:50:50;;;;;;;24.38;15.90;;;25.60;99.90;;;;;;4991707;28;20173;-65
2023/06/07 11:53:15;;;;;;;18.88;15.75;;;25.80;99.90;;;;;;4991826;28;20717;-66
2023/06/07 11:55:41;;;;;;;16.92;15.13;;;25.60;99.90;;;;;;4991942;28;20177;-65
2023/06/07 11:58:07;;;;;;;16.55;14.13;;;25.50;99.90;;;;;;4991494;28;20223;-65
2023/06/07 12:00:35;;;;;;;18.92;15.65;;;25.70;99.90;;;;;;4991622;28;20165;-67
2023/06/07 12:03:02;;;;;;;18.73;16.85;;;25.70;99.90;;;;;;4990625;28;20173;-66
2023/06/07 12:05:31;;;;;;;21.23;16.52;;;25.70;99.90;;;;;;4991826;28;20219;-65
2023/06/07 12:08:05;;;;;;;18.45;16.55;;;25.40;99.90;;;;;;4992177;28;20628;-65
2023/06/07 12:10:36;;;;;;;20.67;18.15;;;25.70;99.90;;;;;;4991759;28;20173;-65
2023/06/07 12:13:17;;;;;;;21.35;18.92;;;26.00;99.90;;;;;;4991631;28;20181;-66
2023/06/07 12:15:54;;;;;;;23.20;19.38;;;26.30;99.90;;;;;;4992068;28;20307;-65
2023/06/07 12:18:24;;;;;;;22.88;20.17;;;26.00;99.90;;;;;;4991898;28;20705;-66
2023/06/07 12:21:02;;;;;;;23.80;20.65;;;25.70;99.90;;;;;;4992159;28;20549;-66
2023/06/07 12:23:27;;;;;;;23.48;19.75;;;25.80;99.90;;;;;;4992094;28;20199;-66
2023/06/07 12:26:04;;;;;;;21.83;19.58;;;25.70;99.90;;;;;;4991797;28;20212;-66
2023/06/07 12:28:30;;;;;;;24.10;21.52;;;25.70;99.90;;;;;;4991842;28;20187;-66
2023/06/07 12:30:57;;;;;;;18.60;16.60;;;25.80;99.90;;;;;;4993767;28;20176;-66
2023/06/07 12:33:25;;;;;;;18.80;16.90;;;26.00;99.90;;;;;;4994371;28;20185;-66
2023/06/07 12:35:51;;;;;;;16.80;15.10;;;26.30;99.90;;;;;;4995779;28;20193;-65